Lehi, UT

2:42 PM MST on January 30, 2015 (GMT -0700)
Jordan Willows | Change Station
CLOSE
Current Station
Personal Weather Station
Location: Lehi, UT
Elevation: 4508 ft
Nearby Weather Stations

Elev 4508 ft 40.38 °N, 111.89 °W | Updated 9 seconds ago

Overcast
Overcast
43.2 °F
Feels Like 40 °F
N
4.9
Wind Variable Wind from North
Gusts 9.2 mph

Today
High -- | Low -- °F
--% Chance of Precip.
Yesterday
High -- | Low -- °F
Precip. -- in
7:38 AM 5:43 PM
Waxing Gibbous, 85% visible
Pressure 30.03 in
Visibility 6.0 miles
Clouds Few 2000 ft
Overcast 5500 ft
Windchill 40 °F
Dew Point 24 °F
Humidity 46%
Rainfall 0.00 in
Snow Depth Not available.
UV 1 out of 12
Pollen .10 out of 12
Air Quality Not available.
Flu Activity Not available.
METAR KPVU 302052Z 31010KT 6SM VCSH FEW020 OVC055 05/02 A3003

More Conditions Fewer Conditions

Pressure 30.03 in
Visibility 6.0 miles
Clouds Few 2000 ft
Overcast 5500 ft
Windchill 40 °F
Dew Point 24 °F
Humidity 46%
Rainfall 0.00 in
Snow Depth Not available.
UV 1 out of 12
Pollen .10 out of 12
Air Quality Not available.
Flu Activity Not available.
METAR KPVU 302052Z 31010KT 6SM VCSH FEW020 OVC055 05/02 A3003

More Conditions Fewer Conditions

10-Day Weather Forecast

Almanac

Astronomy

Jan. 30, 2015 Rise Set
Actual Time
Civil Twilight
Nautical Twilight
Astronomical Twilight
Moon
Length of Visible Light
Length of Day
Tomorrow will be .
, % of the Moon is Illuminated

Today's Extremes

State Highs State Lows

Community

WunderPhotos

Upload Photos

1,791,897 photos uploaded!

WunderBlogs® & News

Nearby

Air Quality

  Air Quality AQ Index Pollutant
Not available.

Snow Depth

Station Depth Elevation

Earthquake Activity

City Distance Mag. Time & Date
Minimum magnitude displayed is 2.5.

Coastal Water Temperatures

Place Temperature

Nearby Weather Stations